Time;durP1;ratioP1;P1;durP2;ratioP2;P2;SDS_P1;SDS_P2;PMS_P1;PMS_P2;Temp;Humidity;BMP_temperature;BMP_pressure;BME280_temperature;BME280_humidity;BME280_pressure;Samples;Min_cycle;Max_cycle;Signal;HPM_P1;HPM_P2
2020/12/25 00:00:08;;;;;;;104.10;42.08;;;;;;;;;;5031735;28;20202;-96
2020/12/25 00:02:34;;;;;;;123.57;44.55;;;;;;;;;;5034081;28;20198;-96
2020/12/25 00:07:44;;;;;;;116.85;44.50;;;;;;;;;;5032312;28;20218;-96
2020/12/25 00:10:10;;;;;;;113.57;46.53;;;;;;;;;;5027017;28;20205;-96
2020/12/25 00:12:37;;;;;;;101.35;46.10;;;;;;;;;;5028542;28;20210;-96
2020/12/25 00:15:09;;;;;;;136.00;48.35;;;;;;;;;;5032092;28;20307;-96
2020/12/25 00:17:36;;;;;;;202.25;52.85;;;;;;;;;;5030564;28;20201;-96
2020/12/25 00:20:03;;;;;;;158.80;50.33;;;;;;;;;;5027713;28;20291;-96
2020/12/25 00:22:29;;;;;;;112.63;43.45;;;;;;;;;;5026384;28;20210;-96
2020/12/25 00:24:56;;;;;;;168.25;49.22;;;;;;;;;;5030444;28;20195;-96
2020/12/25 00:27:25;;;;;;;171.93;46.72;;;;;;;;;;5035430;28;20206;-96
2020/12/25 00:29:53;;;;;;;159.98;46.13;;;;;;;;;;5033164;28;20205;-96
2020/12/25 00:34:55;;;;;;;231.85;56.22;;;;;;;;;;5533552;23;20242;-96
2020/12/25 00:37:23;;;;;;;344.50;57.45;;;;;;;;;;5019096;28;20235;-96
2020/12/25 00:39:49;;;;;;;265.48;53.78;;;;;;;;;;5025390;28;20184;-96
2020/12/25 00:42:16;;;;;;;241.52;52.08;;;;;;;;;;5036888;28;20219;-96
2020/12/25 00:44:44;;;;;;;193.95;54.17;;;;;;;;;;5017021;28;20211;-96
2020/12/25 00:47:12;;;;;;;218.90;48.00;;;;;;;;;;5017123;28;20207;-96
2020/12/25 00:49:39;;;;;;;179.10;43.20;;;;;;;;;;5004885;28;20226;-96
2020/12/25 00:52:08;;;;;;;296.83;48.10;;;;;;;;;;5033624;28;20400;-96
2020/12/25 00:54:36;;;;;;;268.08;47.38;;;;;;;;;;4998321;28;20289;-96
2020/12/25 00:57:18;;;;;;;271.23;43.40;;;;;;;;;;5034183;28;20206;-96
2020/12/25 00:59:46;;;;;;;204.48;42.15;;;;;;;;;;5031695;28;20209;-96
2020/12/25 01:02:13;;;;;;;325.88;53.50;;;;;;;;;;5024741;28;20206;-96
2020/12/25 01:04:40;;;;;;;191.70;44.53;;;;;;;;;;5010010;28;20206;-96
2020/12/25 01:07:08;;;;;;;265.17;50.85;;;;;;;;;;5014895;28;20201;-96
2020/12/25 01:09:38;;;;;;;385.77;65.40;;;;;;;;;;5016381;28;20195;-96
2020/12/25 01:12:09;;;;;;;299.73;55.15;;;;;;;;;;4998324;28;20207;-96
2020/12/25 01:14:36;;;;;;;456.40;75.93;;;;;;;;;;5013303;28;20281;-96
2020/12/25 01:17:03;;;;;;;462.83;93.50;;;;;;;;;;5014769;28;20239;-96
2020/12/25 01:19:42;;;;;;;354.60;82.18;;;;;;;;;;5032297;28;20376;-96
2020/12/25 01:25:04;;;;;;;395.95;86.60;;;;;;;;;;4991875;28;20203;-96
2020/12/25 01:27:31;;;;;;;482.23;96.43;;;;;;;;;;4992932;28;20238;-96
2020/12/25 01:29:58;;;;;;;361.40;88.70;;;;;;;;;;5010262;28;20210;-96
2020/12/25 01:32:48;;;;;;;454.75;91.60;;;;;;;;;;5013740;28;20192;-96
2020/12/25 01:35:15;;;;;;;466.17;89.05;;;;;;;;;;5027873;28;20233;-96
2020/12/25 01:37:41;;;;;;;185.20;69.50;;;;;;;;;;5036506;28;20201;-96
2020/12/25 01:40:08;;;;;;;481.80;100.95;;;;;;;;;;5023715;28;20206;-96
2020/12/25 01:42:40;;;;;;;429.10;96.50;;;;;;;;;;5014924;28;20269;-96
2020/12/25 01:45:07;;;;;;;382.25;89.35;;;;;;;;;;5016741;28;20290;-96
2020/12/25 01:47:33;;;;;;;426.52;89.95;;;;;;;;;;4997767;28;20275;-96
2020/12/25 01:50:00;;;;;;;434.13;90.53;;;;;;;;;;4993890;28;20194;-96
2020/12/25 01:52:28;;;;;;;545.35;108.43;;;;;;;;;;5007857;28;20234;-96
2020/12/25 01:54:56;;;;;;;514.30;116.95;;;;;;;;;;5011249;28;20297;-96
2020/12/25 01:57:23;;;;;;;349.75;71.53;;;;;;;;;;5007858;28;20223;-96
2020/12/25 01:59:50;;;;;;;210.25;58.10;;;;;;;;;;5007362;28;20210;-96
2020/12/25 02:02:17;;;;;;;246.07;59.03;;;;;;;;;;5005388;28;20273;-96
2020/12/25 02:04:43;;;;;;;202.90;55.13;;;;;;;;;;5010736;28;20217;-96
2020/12/25 02:07:10;;;;;;;237.93;60.35;;;;;;;;;;5013842;28;20234;-96
2020/12/25 02:09:37;;;;;;;238.45;59.67;;;;;;;;;;5011480;28;20211;-96
2020/12/25 02:12:04;;;;;;;241.05;58.92;;;;;;;;;;4997605;28;20196;-96
2020/12/25 02:14:31;;;;;;;200.50;56.45;;;;;;;;;;4997125;28;20211;-96
2020/12/25 02:16:57;;;;;;;217.40;56.20;;;;;;;;;;5013514;28;20232;-96
2020/12/25 02:19:27;;;;;;;206.27;54.50;;;;;;;;;;4997159;28;20203;-96
2020/12/25 02:22:00;;;;;;;211.10;51.70;;;;;;;;;;5014916;28;20232;-96
2020/12/25 02:24:26;;;;;;;227.43;56.97;;;;;;;;;;5012820;28;20241;-96
2020/12/25 02:26:57;;;;;;;148.55;48.92;;;;;;;;;;5015387;28;20266;-96
2020/12/25 02:29:23;;;;;;;387.80;67.03;;;;;;;;;;5017289;28;20214;-96
2020/12/25 02:31:50;;;;;;;221.82;56.08;;;;;;;;;;5012260;28;20273;-96
2020/12/25 02:34:17;;;;;;;203.13;53.28;;;;;;;;;;5014771;28;20187;-96
2020/12/25 02:36:44;;;;;;;235.98;54.05;;;;;;;;;;5013599;28;20261;-96
2020/12/25 02:39:26;;;;;;;173.02;48.28;;;;;;;;;;5024277;28;20253;-96
2020/12/25 02:42:13;;;;;;;222.55;55.00;;;;;;;;;;4997432;28;20184;-96
2020/12/25 02:44:46;;;;;;;207.55;54.88;;;;;;;;;;5000283;28;20273;-96
2020/12/25 02:47:19;;;;;;;215.00;49.58;;;;;;;;;;5021306;28;20201;-96
2020/12/25 02:53:25;;;;;;;150.50;49.38;;;;;;;;;;4995674;28;20251;-96
2020/12/25 02:59:06;;;;;;;241.25;59.03;;;;;;;;;;5021534;28;20187;-96
2020/12/25 03:07:11;;;;;;;244.73;64.63;;;;;;;;;;5053547;23;20293;-96
2020/12/25 03:09:40;;;;;;;269.02;58.42;;;;;;;;;;5022029;23;20221;-96
2020/12/25 03:17:20;;;;;;;344.27;79.85;;;;;;;;;;4993412;28;20240;-96
2020/12/25 03:19:48;;;;;;;173.38;58.20;;;;;;;;;;4976239;28;20199;-96
2020/12/25 03:22:20;;;;;;;239.52;67.57;;;;;;;;;;4994457;28;20216;-96
2020/12/25 03:24:48;;;;;;;240.93;63.45;;;;;;;;;;4975066;28;20204;-96
2020/12/25 03:27:15;;;;;;;146.32;50.45;;;;;;;;;;4975431;28;20241;-96
2020/12/25 03:29:41;;;;;;;195.55;55.42;;;;;;;;;;4989566;28;20220;-96
2020/12/25 03:32:09;;;;;;;192.60;55.97;;;;;;;;;;4992692;28;20202;-96
2020/12/25 03:34:38;;;;;;;182.05;55.30;;;;;;;;;;4990430;28;20266;-96
2020/12/25 03:37:05;;;;;;;298.52;66.25;;;;;;;;;;4992432;28;20249;-96
2020/12/25 03:39:33;;;;;;;176.63;57.38;;;;;;;;;;4974205;28;20234;-96
2020/12/25 03:42:03;;;;;;;174.52;56.05;;;;;;;;;;4975237;28;20275;-96
2020/12/25 03:44:31;;;;;;;136.60;53.63;;;;;;;;;;4976752;28;20204;-96
2020/12/25 03:46:58;;;;;;;228.00;57.03;;;;;;;;;;4980471;28;20202;-96
2020/12/25 03:49:27;;;;;;;178.75;53.92;;;;;;;;;;4992995;28;20210;-96
2020/12/25 03:51:55;;;;;;;200.75;50.95;;;;;;;;;;4972957;28;20207;-96
2020/12/25 03:54:21;;;;;;;158.27;49.53;;;;;;;;;;4992490;28;20209;-96
2020/12/25 03:56:48;;;;;;;165.82;53.80;;;;;;;;;;4976428;28;20219;-96
2020/12/25 03:59:16;;;;;;;243.45;61.30;;;;;;;;;;4997729;28;20191;-96
2020/12/25 04:01:51;;;;;;;260.05;65.82;;;;;;;;;;4992166;28;20195;-96
2020/12/25 04:04:20;;;;;;;287.45;67.05;;;;;;;;;;4985292;28;20202;-96
2020/12/25 04:06:49;;;;;;;184.05;56.78;;;;;;;;;;4995172;28;20269;-96
2020/12/25 04:09:26;;;;;;;339.65;68.28;;;;;;;;;;4995674;28;20433;-96
2020/12/25 04:11:53;;;;;;;103.57;42.90;;;;;;;;;;4997901;28;20210;-96
2020/12/25 04:14:23;;;;;;;120.88;47.35;;;;;;;;;;4980104;28;20213;-96
2020/12/25 04:16:52;;;;;;;140.07;49.70;;;;;;;;;;4992018;28;20310;-96
2020/12/25 04:19:27;;;;;;;180.45;53.60;;;;;;;;;;4995260;28;20187;-96
2020/12/25 04:25:04;;;;;;;77.05;32.75;;;;;;;;;;5501033;23;20225;-96
2020/12/25 04:27:32;;;;;;;79.65;35.28;;;;;;;;;;5032475;28;20210;-96
2020/12/25 04:29:59;;;;;;;124.20;45.45;;;;;;;;;;5024300;28;20205;-96
2020/12/25 04:38:36;;;;;;;98.53;42.90;;;;;;;;;;5356953;23;20245;-96
2020/12/25 04:41:06;;;;;;;85.65;38.40;;;;;;;;;;5030342;28;20210;-96
2020/12/25 04:43:33;;;;;;;118.38;41.42;;;;;;;;;;5018147;28;20203;-96
2020/12/25 04:46:00;;;;;;;109.13;41.30;;;;;;;;;;5024114;28;20214;-96
2020/12/25 04:48:26;;;;;;;114.75;38.28;;;;;;;;;;5036067;28;20182;-96
2020/12/25 04:50:52;;;;;;;93.38;38.17;;;;;;;;;;5034818;28;20233;-96
2020/12/25 04:53:19;;;;;;;88.70;37.78;;;;;;;;;;5016744;28;20234;-96
2020/12/25 04:55:46;;;;;;;96.18;37.45;;;;;;;;;;5026270;28;20381;-96
2020/12/25 04:58:15;;;;;;;99.85;39.40;;;;;;;;;;5033899;28;20226;-96
2020/12/25 05:00:42;;;;;;;85.57;41.03;;;;;;;;;;5035197;28;20221;-96
2020/12/25 05:03:22;;;;;;;116.05;41.45;;;;;;;;;;5028185;28;20224;-96
2020/12/25 05:05:56;;;;;;;99.22;39.65;;;;;;;;;;5032035;28;20197;-96
2020/12/25 05:08:30;;;;;;;114.38;38.08;;;;;;;;;;5033789;28;20223;-96
2020/12/25 05:11:12;;;;;;;116.70;37.53;;;;;;;;;;5036025;28;20213;-96
2020/12/25 05:13:52;;;;;;;74.40;33.05;;;;;;;;;;5026936;28;20196;-96
2020/12/25 05:16:23;;;;;;;83.35;35.65;;;;;;;;;;5035201;28;20296;-96
2020/12/25 05:18:51;;;;;;;79.93;34.80;;;;;;;;;;5030529;28;20220;-96
2020/12/25 05:21:18;;;;;;;91.20;33.30;;;;;;;;;;5032513;28;20227;-96
2020/12/25 05:23:45;;;;;;;89.70;35.20;;;;;;;;;;5031034;28;20274;-96
2020/12/25 05:26:18;;;;;;;137.57;38.65;;;;;;;;;;5010379;28;20276;-96
2020/12/25 05:34:52;;;;;;;175.63;45.13;;;;;;;;;;5035922;28;20190;-96
2020/12/25 05:40:05;;;;;;;150.45;43.70;;;;;;;;;;4996946;28;20230;-96
2020/12/25 05:42:32;;;;;;;85.28;37.67;;;;;;;;;;5018700;28;20183;-96
2020/12/25 05:45:06;;;;;;;123.18;39.80;;;;;;;;;;5031908;28;20266;-96
2020/12/25 05:47:36;;;;;;;106.57;37.88;;;;;;;;;;5035119;28;20263;-96
2020/12/25 05:50:08;;;;;;;104.57;35.78;;;;;;;;;;5016849;28;20206;-96
2020/12/25 05:52:55;;;;;;;124.10;37.35;;;;;;;;;;5027514;28;20281;-96
2020/12/25 06:10:09;;;;;;;179.15;42.53;;;;;;;;;;5013653;28;20219;-96
2020/12/25 06:12:41;;;;;;;181.73;42.58;;;;;;;;;;5017706;28;20202;-96
2020/12/25 06:15:09;;;;;;;143.68;39.58;;;;;;;;;;4999712;28;20225;-96
2020/12/25 06:17:37;;;;;;;142.43;43.50;;;;;;;;;;5018606;28;20206;-96
2020/12/25 06:20:04;;;;;;;158.80;39.70;;;;;;;;;;5018645;28;20200;-96
2020/12/25 06:22:45;;;;;;;178.70;43.40;;;;;;;;;;5019833;28;20187;-96
2020/12/25 06:25:14;;;;;;;152.95;40.55;;;;;;;;;;5019683;28;20205;-96
2020/12/25 06:30:55;;;;;;;152.30;43.83;;;;;;;;;;5017264;28;20186;-96
2020/12/25 07:07:36;;;;;;;58.47;26.75;;;;;;;;;;4927142;26;20246;-96
2020/12/25 07:10:06;;;;;;;55.28;25.85;;;;;;;;;;5019191;28;20243;-96
2020/12/25 07:12:34;;;;;;;51.92;24.70;;;;;;;;;;5031027;28;20204;-96
2020/12/25 07:15:02;;;;;;;55.10;25.33;;;;;;;;;;5026316;28;20607;-96
2020/12/25 07:17:28;;;;;;;44.33;25.45;;;;;;;;;;5012277;28;20206;-96
2020/12/25 07:19:55;;;;;;;50.70;28.92;;;;;;;;;;5027298;28;20274;-96
2020/12/25 07:22:23;;;;;;;39.35;23.65;;;;;;;;;;5028503;28;20211;-96
2020/12/25 07:24:52;;;;;;;37.03;25.35;;;;;;;;;;5029250;28;20201;-96
2020/12/25 07:27:18;;;;;;;41.05;26.40;;;;;;;;;;5025835;28;20210;-96
2020/12/25 07:29:45;;;;;;;43.33;26.45;;;;;;;;;;5030666;28;20552;-96
2020/12/25 07:32:13;;;;;;;40.08;24.98;;;;;;;;;;5020325;28;20242;-96
2020/12/25 07:34:39;;;;;;;44.05;25.95;;;;;;;;;;5023465;28;20205;-96
2020/12/25 07:37:07;;;;;;;48.55;29.15;;;;;;;;;;5019844;28;20269;-96
2020/12/25 07:39:33;;;;;;;52.33;29.20;;;;;;;;;;5021406;28;20208;-96
2020/12/25 07:42:00;;;;;;;48.38;28.92;;;;;;;;;;5022372;28;20216;-96
2020/12/25 07:44:26;;;;;;;39.25;26.65;;;;;;;;;;5008759;28;20215;-96
2020/12/25 07:46:52;;;;;;;46.83;28.25;;;;;;;;;;5009762;28;20206;-96
2020/12/25 07:49:19;;;;;;;41.55;27.52;;;;;;;;;;5011506;28;20573;-96
2020/12/25 07:51:47;;;;;;;45.72;26.40;;;;;;;;;;5028100;28;20206;-96
2020/12/25 07:54:14;;;;;;;47.13;26.92;;;;;;;;;;5021267;28;20774;-96
2020/12/25 07:56:40;;;;;;;53.58;28.33;;;;;;;;;;5013783;28;20237;-96
2020/12/25 07:59:07;;;;;;;66.25;32.85;;;;;;;;;;5017100;28;20218;-96
2020/12/25 08:01:35;;;;;;;71.15;31.80;;;;;;;;;;5025083;28;20635;-96
2020/12/25 08:04:02;;;;;;;118.28;38.92;;;;;;;;;;5022666;28;20214;-96
2020/12/25 08:06:29;;;;;;;84.53;40.42;;;;;;;;;;5017820;28;20243;-96
2020/12/25 08:08:57;;;;;;;118.90;40.45;;;;;;;;;;5015381;28;20253;-96
2020/12/25 08:11:24;;;;;;;109.82;41.88;;;;;;;;;;5020504;28;20205;-96
2020/12/25 08:13:52;;;;;;;115.57;43.17;;;;;;;;;;5027597;28;20204;-96
2020/12/25 08:16:19;;;;;;;130.20;53.20;;;;;;;;;;5023027;28;20486;-96
2020/12/25 08:18:47;;;;;;;147.55;54.00;;;;;;;;;;5021772;28;20216;-95
2020/12/25 08:21:13;;;;;;;132.18;51.38;;;;;;;;;;5013667;28;20212;-96
2020/12/25 08:23:39;;;;;;;314.13;120.15;;;;;;;;;;5018376;28;20204;-96
2020/12/25 08:26:06;;;;;;;215.43;94.35;;;;;;;;;;5005566;28;20203;-96
2020/12/25 08:28:33;;;;;;;205.27;46.00;;;;;;;;;;5013425;28;20197;-96
2020/12/25 08:30:59;;;;;;;148.18;45.70;;;;;;;;;;5012050;28;20253;-96
2020/12/25 08:33:27;;;;;;;155.07;50.22;;;;;;;;;;5013794;28;20219;-96
2020/12/25 08:35:53;;;;;;;154.80;61.53;;;;;;;;;;5009072;28;20261;-96
2020/12/25 08:38:19;;;;;;;177.65;47.47;;;;;;;;;;4996208;28;20203;-96
2020/12/25 08:40:46;;;;;;;153.68;50.80;;;;;;;;;;5026559;28;20217;-96
2020/12/25 08:43:13;;;;;;;180.63;52.20;;;;;;;;;;5015324;28;20282;-96
2020/12/25 08:45:53;;;;;;;171.43;51.05;;;;;;;;;;5006299;28;20215;-96
2020/12/25 08:48:19;;;;;;;120.23;50.67;;;;;;;;;;5008838;28;20215;-96
2020/12/25 08:50:46;;;;;;;160.27;58.35;;;;;;;;;;5012829;28;20486;-95
2020/12/25 08:53:14;;;;;;;224.75;78.30;;;;;;;;;;5021904;28;20201;-96
2020/12/25 08:55:41;;;;;;;151.90;69.65;;;;;;;;;;5028252;28;20238;-96
2020/12/25 08:58:07;;;;;;;195.15;77.88;;;;;;;;;;5025247;28;20295;-96
2020/12/25 09:00:33;;;;;;;153.70;76.50;;;;;;;;;;5023374;28;20282;-96
2020/12/25 09:02:59;;;;;;;149.90;64.20;;;;;;;;;;5023783;28;20211;-96
2020/12/25 09:05:27;;;;;;;119.85;64.00;;;;;;;;;;5009660;28;20463;-96
2020/12/25 09:07:54;;;;;;;182.50;65.28;;;;;;;;;;5010180;28;20310;-96
2020/12/25 09:10:20;;;;;;;162.32;64.85;;;;;;;;;;5015833;28;20872;-96
2020/12/25 09:12:46;;;;;;;152.70;62.60;;;;;;;;;;5030201;28;20231;-96
2020/12/25 09:15:12;;;;;;;165.57;67.47;;;;;;;;;;5030273;28;20225;-96
2020/12/25 09:17:38;;;;;;;185.98;63.78;;;;;;;;;;5032442;28;20947;-96
2020/12/25 09:20:05;;;;;;;231.20;82.15;;;;;;;;;;5016928;28;20207;-96
2020/12/25 09:22:32;;;;;;;191.32;75.03;;;;;;;;;;5007548;28;20228;-96
2020/12/25 09:24:59;;;;;;;190.82;72.93;;;;;;;;;;5007203;28;20222;-96
2020/12/25 09:27:25;;;;;;;182.75;82.93;;;;;;;;;;5016390;28;20208;-96
2020/12/25 09:29:52;;;;;;;173.85;81.90;;;;;;;;;;5029871;28;20228;-96
2020/12/25 09:32:18;;;;;;;212.32;78.70;;;;;;;;;;5005665;28;20189;-96
2020/12/25 09:37:46;;;;;;;160.73;80.23;;;;;;;;;;5017538;28;20456;-96
2020/12/25 09:40:16;;;;;;;179.87;84.47;;;;;;;;;;5027824;28;20511;-96
2020/12/25 09:42:42;;;;;;;195.77;83.32;;;;;;;;;;5014230;28;20814;-96
2020/12/25 09:45:08;;;;;;;185.57;87.70;;;;;;;;;;5018197;28;20185;-95
2020/12/25 09:47:34;;;;;;;153.32;82.70;;;;;;;;;;5018055;28;20464;-95
2020/12/25 09:50:00;;;;;;;163.00;90.57;;;;;;;;;;5005886;28;20213;-96
2020/12/25 09:52:26;;;;;;;147.33;84.30;;;;;;;;;;5005984;28;20903;-95
2020/12/25 09:54:54;;;;;;;156.18;85.93;;;;;;;;;;5022103;28;20522;-96
2020/12/25 09:57:33;;;;;;;156.30;86.93;;;;;;;;;;5029922;28;20271;-96
2020/12/25 10:00:07;;;;;;;146.80;83.17;;;;;;;;;;5014452;28;20459;-96
2020/12/25 10:02:35;;;;;;;159.33;89.60;;;;;;;;;;5029298;28;20443;-96
2020/12/25 10:05:07;;;;;;;161.60;94.40;;;;;;;;;;5022791;28;20447;-95
2020/12/25 10:07:34;;;;;;;149.90;85.87;;;;;;;;;;5009615;28;20485;-96
2020/12/25 10:10:01;;;;;;;152.37;88.27;;;;;;;;;;5023165;28;20485;-96
2020/12/25 10:12:32;;;;;;;161.90;101.60;;;;;;;;;;5012617;28;20461;-96
2020/12/25 10:15:01;;;;;;;153.80;95.53;;;;;;;;;;5026764;28;20447;-96
2020/12/25 10:17:42;;;;;;;175.53;101.70;;;;;;;;;;5014441;28;20539;-95
2020/12/25 10:20:08;;;;;;;170.67;107.27;;;;;;;;;;5006401;28;20459;-95
2020/12/25 10:22:41;;;;;;;173.83;110.50;;;;;;;;;;5026336;28;20438;-95
2020/12/25 10:27:51;;;;;;;188.83;117.40;;;;;;;;;;5017915;28;20483;-96
2020/12/25 10:30:17;;;;;;;173.37;114.70;;;;;;;;;;5018962;28;20468;-96
2020/12/25 10:32:43;;;;;;;186.17;111.97;;;;;;;;;;5020286;28;20552;-95
2020/12/25 10:35:12;;;;;;;190.17;114.70;;;;;;;;;;5030639;28;20520;-96
2020/12/25 10:37:39;;;;;;;168.53;106.77;;;;;;;;;;5029257;28;20447;-96
2020/12/25 10:40:05;;;;;;;176.10;113.73;;;;;;;;;;5012550;28;20460;-94
2020/12/25 10:42:31;;;;;;;162.90;99.23;;;;;;;;;;5018089;28;20475;-96
2020/12/25 10:44:58;;;;;;;157.97;101.37;;;;;;;;;;5009676;28;20464;-96
2020/12/25 10:47:24;;;;;;;143.00;95.50;;;;;;;;;;5011496;28;20444;-94
2020/12/25 10:49:50;;;;;;;139.83;86.70;;;;;;;;;;5009321;28;20467;-94
2020/12/25 10:52:16;;;;;;;147.67;97.60;;;;;;;;;;5010119;28;20453;-93
2020/12/25 10:54:42;;;;;;;126.17;82.50;;;;;;;;;;5000636;28;20479;-93
2020/12/25 10:57:08;;;;;;;120.73;80.27;;;;;;;;;;5008090;28;20488;-93
2020/12/25 10:59:34;;;;;;;134.40;89.33;;;;;;;;;;5012118;28;20440;-93
2020/12/25 11:02:01;;;;;;;127.90;87.00;;;;;;;;;;5024312;28;20447;-93
2020/12/25 11:04:27;;;;;;;133.53;89.97;;;;;;;;;;5010754;28;20467;-93
2020/12/25 11:06:53;;;;;;;137.60;89.10;;;;;;;;;;5002532;28;20484;-94
2020/12/25 11:09:19;;;;;;;151.70;95.70;;;;;;;;;;5004256;28;20464;-95
2020/12/25 11:11:45;;;;;;;141.10;97.50;;;;;;;;;;5005685;28;20472;-94
2020/12/25 11:14:11;;;;;;;177.50;118.40;;;;;;;;;;5011898;28;20467;-94
2020/12/25 11:16:39;;;;;;;167.40;112.57;;;;;;;;;;5006075;28;20487;-94
2020/12/25 11:19:06;;;;;;;143.60;101.50;;;;;;;;;;5013713;28;20446;-92
2020/12/25 11:21:32;;;;;;;153.30;111.10;;;;;;;;;;5016164;28;20460;-93
2020/12/25 11:23:59;;;;;;;136.63;93.37;;;;;;;;;;5019000;28;20464;-93
2020/12/25 11:26:26;;;;;;;134.00;89.67;;;;;;;;;;5023762;28;20525;-94
2020/12/25 11:28:52;;;;;;;120.77;80.07;;;;;;;;;;5017144;28;20468;-93
2020/12/25 11:31:19;;;;;;;153.27;112.33;;;;;;;;;;5020370;28;20455;-94
2020/12/25 11:33:45;;;;;;;151.23;112.47;;;;;;;;;;5017481;28;20463;-96
2020/12/25 11:36:16;;;;;;;134.63;98.50;;;;;;;;;;5019676;28;20499;-95
2020/12/25 11:38:42;;;;;;;153.00;113.30;;;;;;;;;;5010457;28;20475;-94
2020/12/25 11:41:09;;;;;;;155.33;116.67;;;;;;;;;;5017912;28;20502;-95
2020/12/25 11:43:35;;;;;;;157.40;118.53;;;;;;;;;;5014649;28;20472;-93
2020/12/25 11:46:01;;;;;;;162.23;126.10;;;;;;;;;;5017119;28;20452;-94
2020/12/25 11:48:27;;;;;;;217.63;166.30;;;;;;;;;;5017521;28;20455;-95
2020/12/25 11:50:54;;;;;;;198.03;153.60;;;;;;;;;;5018635;28;20852;-95
2020/12/25 11:53:21;;;;;;;177.27;139.00;;;;;;;;;;5025978;28;20464;-96
2020/12/25 11:59:34;;;;;;;132.70;99.40;;;;;;;;;;5064539;23;20499;-96
2020/12/25 12:02:00;;;;;;;18.53;14.13;;;;;;;;;;5015723;23;20493;-96
2020/12/25 12:04:26;;;;;;;16.77;12.90;;;;;;;;;;5018466;28;20561;-96
2020/12/25 12:06:56;;;;;;;16.97;12.80;;;;;;;;;;5005449;28;20975;-96
2020/12/25 12:09:23;;;;;;;14.17;10.80;;;;;;;;;;5148227;23;21354;-96
2020/12/25 12:11:50;;;;;;;10.77;9.13;;;;;;;;;;5502426;23;20455;-96
2020/12/25 12:14:17;;;;;;;9.60;8.30;;;;;;;;;;5031489;28;20428;-96
2020/12/25 12:16:44;;;;;;;9.20;8.13;;;;;;;;;;5017601;28;20584;-96
2020/12/25 12:19:30;;;;;;;10.83;8.33;;;;;;;;;;5009978;28;20439;-96
2020/12/25 12:21:57;;;;;;;11.87;8.67;;;;;;;;;;5038849;23;20522;-95
2020/12/25 12:27:19;;;;;;;10.57;8.33;;;;;;;;;;4995104;28;20434;-95
2020/12/25 12:29:45;;;;;;;8.13;7.33;;;;;;;;;;5023282;23;21078;-96
2020/12/25 12:32:11;;;;;;;8.07;7.00;;;;;;;;;;5019823;28;20473;-96
2020/12/25 12:34:38;;;;;;;8.20;6.87;;;;;;;;;;5015782;28;20479;-95
2020/12/25 12:37:04;;;;;;;8.50;7.20;;;;;;;;;;5015860;28;20488;-93
2020/12/25 12:39:42;;;;;;;6.80;5.80;;;;;;;;;;5011508;28;20455;-96
2020/12/25 12:42:16;;;;;;;5.67;5.07;;;;;;;;;;5059811;23;20450;-96
2020/12/25 12:44:43;;;;;;;6.00;4.43;;;;;;;;;;4997179;28;20508;-96
2020/12/25 12:47:16;;;;;;;4.77;4.33;;;;;;;;;;5014003;28;20448;-96
2020/12/25 12:50:11;;;;;;;8.00;6.90;;;;;;;;;;5013512;28;20431;-96
2020/12/25 12:52:56;;;;;;;7.70;6.50;;;;;;;;;;5005299;28;20471;-95
2020/12/25 12:55:22;;;;;;;4.53;4.13;;;;;;;;;;5002596;28;20448;-94
2020/12/25 12:57:48;;;;;;;9.23;5.30;;;;;;;;;;5006647;28;20444;-96
2020/12/25 13:00:14;;;;;;;5.10;4.17;;;;;;;;;;5004893;28;20475;-92
2020/12/25 13:02:40;;;;;;;5.40;4.90;;;;;;;;;;5002112;28;21242;-94
2020/12/25 13:05:07;;;;;;;5.30;4.77;;;;;;;;;;5006987;28;20449;-95
2020/12/25 13:07:33;;;;;;;4.80;4.30;;;;;;;;;;5006522;28;20531;-93
2020/12/25 13:09:59;;;;;;;5.43;4.93;;;;;;;;;;5004733;28;20488;-93
2020/12/25 13:12:26;;;;;;;5.30;4.80;;;;;;;;;;5003396;28;20465;-94
2020/12/25 13:14:51;;;;;;;7.50;5.47;;;;;;;;;;5006482;28;20460;-95
2020/12/25 13:17:18;;;;;;;7.30;6.60;;;;;;;;;;5004221;28;20488;-94
2020/12/25 13:19:45;;;;;;;6.10;4.93;;;;;;;;;;5005882;28;20451;-96
2020/12/25 13:22:11;;;;;;;5.57;4.97;;;;;;;;;;5004995;28;20449;-96
2020/12/25 13:24:37;;;;;;;6.30;5.70;;;;;;;;;;5004460;28;20464;-93
2020/12/25 13:27:03;;;;;;;6.30;5.60;;;;;;;;;;5002240;28;20456;-93
2020/12/25 13:29:32;;;;;;;5.47;4.73;;;;;;;;;;5002519;28;20440;-92
2020/12/25 13:31:58;;;;;;;5.33;4.83;;;;;;;;;;5000884;28;20460;-91
2020/12/25 13:34:24;;;;;;;6.47;5.20;;;;;;;;;;5001009;28;20444;-96
2020/12/25 13:39:34;;;;;;;7.83;5.73;;;;;;;;;;4997362;26;20496;-94
2020/12/25 13:42:01;;;;;;;5.63;5.10;;;;;;;;;;4983275;28;20446;-96
2020/12/25 13:44:55;;;;;;;7.20;6.40;;;;;;;;;;4991865;28;20561;-96
2020/12/25 13:52:32;;;;;;;5.97;4.77;;;;;;;;;;5081141;23;20503;-95
2020/12/25 13:54:59;;;;;;;5.40;4.90;;;;;;;;;;5494587;22;20486;-96
2020/12/25 14:00:01;;;;;;;6.80;5.07;;;;;;;;;;5333786;22;20494;-93
2020/12/25 14:02:30;;;;;;;6.53;5.67;;;;;;;;;;5040767;28;20446;-95
2020/12/25 14:04:57;;;;;;;5.60;5.10;;;;;;;;;;5043400;28;20455;-93
2020/12/25 14:07:23;;;;;;;6.03;5.30;;;;;;;;;;5032415;28;20473;-94
2020/12/25 14:09:50;;;;;;;6.10;5.50;;;;;;;;;;5023349;28;20468;-94
2020/12/25 14:12:18;;;;;;;6.23;5.53;;;;;;;;;;5031118;28;20458;-96
2020/12/25 14:14:44;;;;;;;6.27;5.67;;;;;;;;;;5030767;28;20862;-96
2020/12/25 14:17:10;;;;;;;5.67;4.90;;;;;;;;;;5030694;28;20492;-94
2020/12/25 14:19:40;;;;;;;6.77;5.30;;;;;;;;;;5023690;28;20837;-96
2020/12/25 14:22:06;;;;;;;5.97;5.37;;;;;;;;;;5057806;23;20494;-96
2020/12/25 14:30:51;;;;;;;7.30;6.23;;;;;;;;;;5024663;28;20494;-96
2020/12/25 14:33:17;;;;;;;6.13;5.53;;;;;;;;;;5041422;28;20439;-93
2020/12/25 14:35:43;;;;;;;7.50;6.50;;;;;;;;;;5049300;28;20485;-92
2020/12/25 14:38:09;;;;;;;8.70;6.60;;;;;;;;;;5047429;28;20455;-93
2020/12/25 14:40:35;;;;;;;7.43;6.57;;;;;;;;;;5036476;28;20456;-95
2020/12/25 14:43:01;;;;;;;6.70;6.07;;;;;;;;;;5046434;28;20450;-94
2020/12/25 14:45:27;;;;;;;8.80;6.10;;;;;;;;;;5043237;28;20476;-92
2020/12/25 14:47:56;;;;;;;6.83;5.83;;;;;;;;;;5050098;28;20472;-94
2020/12/25 14:50:23;;;;;;;6.20;5.60;;;;;;;;;;5042467;28;20484;-96
2020/12/25 14:52:49;;;;;;;6.63;6.00;;;;;;;;;;5061027;28;20478;-96
2020/12/25 14:55:15;;;;;;;6.80;5.97;;;;;;;;;;5049540;28;20452;-94
2020/12/25 14:57:45;;;;;;;7.03;5.73;;;;;;;;;;5044907;28;20480;-96
2020/12/25 15:00:11;;;;;;;6.80;5.17;;;;;;;;;;5026802;28;21643;-93
2020/12/25 15:02:37;;;;;;;7.80;5.77;;;;;;;;;;5041448;28;20467;-94
2020/12/25 15:05:07;;;;;;;6.70;5.87;;;;;;;;;;5044524;28;20435;-96
2020/12/25 15:07:33;;;;;;;6.10;5.50;;;;;;;;;;5040412;28;20466;-96
2020/12/25 15:10:06;;;;;;;7.17;6.00;;;;;;;;;;5042725;28;20429;-96
2020/12/25 15:12:34;;;;;;;5.70;5.20;;;;;;;;;;5022384;28;20483;-91
2020/12/25 15:15:00;;;;;;;6.93;5.70;;;;;;;;;;5042485;28;20470;-92
2020/12/25 15:17:26;;;;;;;6.67;5.67;;;;;;;;;;5045091;28;20495;-92
2020/12/25 15:19:52;;;;;;;6.97;5.50;;;;;;;;;;5042989;28;20471;-93
2020/12/25 15:22:18;;;;;;;7.30;6.23;;;;;;;;;;5039422;28;20482;-93
2020/12/25 15:24:45;;;;;;;6.90;5.70;;;;;;;;;;5044550;28;20451;-96
2020/12/25 15:27:11;;;;;;;6.30;5.70;;;;;;;;;;5044918;28;20456;-94
2020/12/25 15:29:37;;;;;;;6.40;5.50;;;;;;;;;;5040673;28;20431;-96
2020/12/25 15:32:18;;;;;;;7.63;6.03;;;;;;;;;;5041963;28;20560;-96
2020/12/25 15:34:44;;;;;;;7.00;6.30;;;;;;;;;;5047237;28;20496;-96
2020/12/25 15:37:27;;;;;;;7.63;6.13;;;;;;;;;;5043437;28;20488;-96
2020/12/25 15:40:05;;;;;;;6.93;6.23;;;;;;;;;;5111437;22;20499;-96
2020/12/25 15:42:31;;;;;;;8.40;6.20;;;;;;;;;;5064562;22;20493;-96
2020/12/25 15:45:14;;;;;;;6.83;5.90;;;;;;;;;;4994808;28;20464;-96
2020/12/25 15:47:40;;;;;;;8.03;6.63;;;;;;;;;;5195853;23;20484;-96
2020/12/25 15:50:06;;;;;;;8.10;6.40;;;;;;;;;;5102511;23;20540;-95
2020/12/25 15:52:33;;;;;;;8.23;7.13;;;;;;;;;;5001217;28;20433;-96
2020/12/25 15:58:24;;;;;;;10.57;6.93;;;;;;;;;;5034253;23;20465;-96
2020/12/25 16:03:32;;;;;;;7.97;6.20;;;;;;;;;;5012081;28;20494;-96
2020/12/25 16:05:58;;;;;;;8.73;6.20;;;;;;;;;;5031166;23;21236;-92
2020/12/25 16:08:41;;;;;;;9.10;7.53;;;;;;;;;;5035741;28;20453;-96
2020/12/25 16:11:15;;;;;;;6.63;5.90;;;;;;;;;;5026422;28;20457;-95
2020/12/25 16:16:10;;;;;;;6.53;5.67;;;;;;;;;;5033153;28;20507;-95
2020/12/25 16:18:36;;;;;;;7.90;7.10;;;;;;;;;;5044153;28;20452;-94
2020/12/25 16:23:46;;;;;;;9.70;6.30;;;;;;;;;;5032145;28;20471;-96
2020/12/25 16:26:14;;;;;;;8.33;6.80;;;;;;;;;;5032846;23;20523;-96
2020/12/25 16:28:40;;;;;;;9.67;6.80;;;;;;;;;;5039317;28;20444;-96
2020/12/25 16:31:06;;;;;;;9.90;8.77;;;;;;;;;;5028027;28;20453;-96
2020/12/25 16:33:32;;;;;;;8.10;7.30;;;;;;;;;;5039604;28;20430;-96
2020/12/25 16:36:00;;;;;;;8.03;7.27;;;;;;;;;;5049126;28;20479;-95
2020/12/25 16:41:00;;;;;;;7.97;6.97;;;;;;;;;;4986098;28;20491;-96